METAR Data
IDs: Format: Raw Decoded Include TAF

Data at: 0033 UTC 25 Apr 2019

PABR 242353Z 08021KT 10SM CLR M09/M12 A3033 RMK AO2 SLP271 T10891117 11089 21139 58007
PABR 242253Z 07022KT 10SM CLR M09/M12 A3034 RMK AO2 PK WND 07028/2240 SLP274 T10891122
PABR 242153Z 07020KT 10SM CLR M10/M13 A3034 RMK AO2 SLP276 T11001128
PABR 242053Z 07020KT 10SM CLR M11/M14 A3035 RMK AO2 SLP278 T11111139 58001
PABR 241953Z 07018KT 10SM CLR M12/M15 A3035 RMK AO2 SLP279 T11171150
PABR 241853Z 07017KT 10SM CLR M13/M16 A3035 RMK AO2 SLP279 T11281156
PABR 241753Z 07017KT 10SM CLR M14/M17 A3035 RMK AO2 SLP279 T11391167 11139 21178 56002
PABR 241653Z 06014KT 10SM CLR M16/M18 A3035 RMK AO2 SLP280 T11561178
PABR 241553Z 06015KT 10SM CLR M16/M18 A3035 RMK AO2 SLP279 T11611183
PABR 241453Z 06014KT 10SM CLR M17/M19 A3036 RMK AO2 SLP281 T11671189 56003
PABR 241353Z 06012KT 10SM CLR M17/M19 A3036 RMK AO2 SLP281 T11721194
PABR 241253Z AUTO 07012KT 10SM CLR M18/M19 A3036 RMK AO2 SLP283 T11781194 TSNO
PABR 241153Z AUTO 06012KT 10SM CLR M16/M18 A3036 RMK AO2 SLP284 T11611183 11122 21161 51004 TSNO
PABR 241053Z AUTO 06015KT 10SM CLR M15/M18 A3036 RMK AO2 SLP283 T11501178 TSNO
PABR 240953Z AUTO 05016KT 10SM CLR M14/M17 A3036 RMK AO2 SLP282 T11441172 TSNO
PABR 240853Z AUTO 06018KT 10SM CLR M14/M17 A3035 RMK AO2 SLP280 T11391167 410891139 51006 TSNO
PABR 240753Z AUTO 06018KT 10SM CLR M13/M16 A3035 RMK AO2 SLP278 T11331161 TSNO
PABR 240653Z AUTO 05018KT 10SM CLR M13/M16 A3034 RMK AO2 SLP276 T11281156 TSNO
PABR 240553Z 05017KT 10SM CLR M12/M16 A3034 RMK AO2 SLP274 T11221156 11094 21122 53005
PABR 240453Z 06018G26KT 10SM CLR M11/M15 A3033 RMK AO2 PK WND 06026/0447 SLP271 T11111150
PABR 240353Z 06020KT 10SM CLR M10/M14 A3032 RMK AO2 PK WND 06026/0312 SLP270 T11001139
PABR 240253Z 05018KT 10SM CLR M09/M13 A3032 RMK AO2 PK WND 06028/0213 SLP269 T10941133 53006
PABR 240153Z 06020KT 10SM CLR M09/M13 A3031 RMK AO2 PK WND 05027/0111 SLP266 T10941128
PABR 240053Z 05020KT 10SM CLR M09/M13 A3031 RMK AO2 PK WND 05029/0036 SLP264 T10941128
PABR 232353Z 06021KT 10SM CLR M09/M13 A3030 RMK AO2 PK WND 05026/2309 SLP263 T10941133 11089 21117 51009
PABR 232253Z COR 05020KT 10SM CLR M09/M13 A3030 RMK AO2 PK WND 05027/2230 SLP262 T10941133 TSNO
PABR 232153Z 06021KT 10SM CLR M09/M13 A3029 RMK PK WND 06027/2054 SLP259 T10941133 VIA AUTODIAL
PABR 232053Z 06020KT 10SM CLR M09/M13 A3028 RMK AO2 PK WND 06026/2048 SLP254 T10941128 51015
PABR 231953Z 06018KT 10SM CLR M10/M13 A3026 RMK AO2 PK WND 07026/1926 SLP250 T11001133
PABR 231853Z 06019KT 10SM CLR M11/M14 A3025 RMK AO2 PK WND 06026/1841 SLP246 T11111144
PABR 231753Z 06017KT 10SM CLR M12/M15 A3023 RMK AO2 SLP239 T11171150 11117 21133 51022
PABR 231653Z 06017KT 10SM CLR M13/M16 A3021 RMK AO2 SLP233 T11281156
PABR 231553Z 06017KT 10SM CLR M13/M16 A3019 RMK AO2 SLP226 T11331156
PABR 231453Z 05018KT 10SM CLR M13/M15 A3017 RMK AO2 SLP218 T11331150 51015
PABR 231353Z 06017KT 10SM CLR M13/M14 A3015 RMK AO2 SLP213 T11281144
PABR 231253Z AUTO 05017KT 10SM CLR M12/M14 A3014 RMK AO2 SLP208 T11221139 TSNO